createdAt,value
2022-11-07T00:00:59.916Z,13.10
2022-11-07T00:06:03.307Z,13.10
2022-11-07T00:11:07.479Z,13.20
2022-11-07T00:16:11.169Z,13.30
2022-11-07T00:21:13.300Z,13.20
2022-11-07T00:26:16.750Z,13.30
2022-11-07T00:31:19.174Z,13.20
2022-11-07T00:36:24.482Z,13.40
2022-11-07T00:41:28.519Z,13.40
2022-11-07T00:46:31.307Z,13.50
2022-11-07T00:51:33.933Z,13.60
2022-11-07T00:56:36.206Z,13.50
2022-11-07T01:01:38.976Z,13.60
2022-11-07T01:06:43.253Z,13.60
2022-11-07T01:11:47.203Z,13.60
2022-11-07T01:16:51.362Z,13.60
2022-11-07T01:21:53.792Z,13.50
2022-11-07T01:26:56.467Z,13.50
2022-11-07T01:32:00.127Z,13.50
2022-11-07T01:37:02.262Z,13.50
2022-11-07T01:42:07.821Z,13.50
2022-11-07T01:47:14.667Z,13.60
2022-11-07T01:52:27.448Z,13.60
2022-11-07T01:57:41.400Z,13.70
2022-11-07T02:02:49.155Z,13.80
2022-11-07T02:07:52.033Z,13.80
2022-11-07T02:12:57.684Z,13.80
2022-11-07T02:18:00.892Z,13.90
2022-11-07T02:23:29.403Z,13.80
2022-11-07T02:28:34.445Z,13.70
2022-11-07T02:33:36.842Z,13.60
2022-11-07T02:38:41.972Z,13.60
2022-11-07T02:43:57.888Z,13.60
2022-11-07T02:49:03.389Z,13.60
2022-11-07T02:54:06.094Z,13.60
2022-11-07T02:59:11.894Z,13.70
2022-11-07T03:04:14.284Z,13.70
2022-11-07T03:09:23.944Z,13.70
2022-11-07T03:14:28.714Z,13.70
2022-11-07T03:19:38.749Z,13.70
2022-11-07T03:24:40.952Z,13.80
2022-11-07T03:29:43.965Z,13.80
2022-11-07T03:34:46.192Z,13.80
2022-11-07T03:39:48.359Z,13.90
2022-11-07T03:44:52.358Z,14.00
2022-11-07T03:49:56.033Z,14.00
2022-11-07T03:54:58.313Z,14.00
2022-11-07T04:00:03.178Z,13.90
2022-11-07T04:05:14.178Z,14.00
2022-11-07T04:10:19.181Z,14.10
2022-11-07T04:15:41.567Z,14.10
2022-11-07T04:20:43.751Z,14.00
2022-11-07T04:26:04.582Z,14.00
2022-11-07T04:31:06.897Z,13.90
2022-11-07T04:36:10.475Z,13.90
2022-11-07T04:41:40.746Z,14.00
2022-11-07T04:46:43.463Z,14.10
2022-11-07T04:51:49.126Z,14.10
2022-11-07T04:56:57.167Z,14.20
2022-11-07T05:01:59.588Z,14.20
2022-11-07T05:07:02.018Z,14.30
2022-11-07T05:12:05.913Z,14.30
2022-11-07T05:17:15.188Z,14.30
2022-11-07T05:22:37.461Z,14.20
2022-11-07T05:27:42.379Z,14.20
2022-11-07T05:32:45.338Z,14.10
2022-11-07T05:37:50.789Z,14.10
2022-11-07T05:42:59.508Z,14.10
2022-11-07T05:48:05.172Z,14.00
2022-11-07T05:53:14.110Z,14.00
2022-11-07T05:58:17.888Z,14.00
2022-11-07T06:03:20.673Z,14.10
2022-11-07T06:08:24.545Z,14.10
2022-11-07T06:13:29.568Z,14.10
2022-11-07T06:18:41.455Z,14.10
2022-11-07T06:23:44.338Z,14.10
2022-11-07T06:34:06.681Z,14.20
2022-11-07T06:39:09.314Z,14.10
2022-11-07T06:44:15.855Z,14.10
2022-11-07T06:49:20.910Z,14.20
2022-11-07T06:54:45.334Z,14.20
2022-11-07T07:05:21.126Z,14.00
2022-11-07T07:10:28.979Z,13.90
2022-11-07T07:15:51.332Z,13.80
2022-11-07T07:21:07.499Z,13.70
2022-11-07T07:26:15.007Z,13.70
2022-11-07T07:31:29.055Z,13.80
2022-11-07T07:36:34.830Z,13.80
2022-11-07T07:41:40.138Z,13.90
2022-11-07T07:46:46.972Z,14.00
2022-11-07T07:51:51.397Z,14.20
2022-11-07T07:56:53.631Z,14.20
2022-11-07T08:01:57.295Z,14.20
2022-11-07T08:06:59.991Z,14.20
2022-11-07T08:12:11.827Z,14.30
2022-11-07T08:17:23.174Z,14.40
2022-11-07T08:22:27.017Z,14.50
2022-11-07T08:27:35.548Z,14.60
2022-11-07T08:32:42.375Z,14.70
2022-11-07T08:37:44.520Z,14.70
2022-11-07T08:42:51.541Z,14.70
2022-11-07T08:48:01.379Z,14.70
2022-11-07T08:53:04.542Z,14.60
2022-11-07T08:58:23.632Z,14.60
2022-11-07T09:03:46.033Z,14.60
2022-11-07T09:08:55.938Z,14.70
2022-11-07T09:14:09.327Z,14.60
2022-11-07T09:19:12.514Z,14.60
2022-11-07T09:24:19.975Z,14.70
2022-11-07T09:29:23.474Z,14.80
2022-11-07T09:34:26.885Z,15.20
2022-11-07T09:39:29.837Z,15.30
2022-11-07T09:45:00.641Z,15.30
2022-11-07T09:50:18.495Z,15.10
2022-11-07T09:55:44.972Z,15.10
2022-11-07T10:00:48.295Z,15.20
2022-11-07T10:06:23.081Z,15.30
2022-11-07T10:12:13.327Z,15.50
2022-11-07T10:17:41.173Z,15.70
2022-11-07T10:23:07.615Z,15.90
2022-11-07T10:28:20.308Z,15.90
2022-11-07T10:33:51.209Z,15.90
2022-11-07T10:38:57.419Z,16.20
2022-11-07T10:44:16.171Z,16.40
2022-11-07T10:49:21.452Z,16.40
2022-11-07T10:54:31.429Z,16.50
2022-11-07T10:59:39.055Z,16.40
2022-11-07T11:04:51.391Z,16.40
2022-11-07T11:10:00.430Z,16.50
2022-11-07T11:15:21.769Z,16.40
2022-11-07T11:20:24.001Z,16.30
2022-11-07T11:25:29.420Z,16.50
2022-11-07T11:30:35.135Z,16.50
2022-11-07T11:36:00.673Z,16.70
2022-11-07T11:41:23.364Z,16.80
2022-11-07T11:46:36.009Z,16.90
2022-11-07T11:51:45.556Z,16.90
2022-11-07T11:57:02.257Z,17.10
2022-11-07T12:02:29.615Z,17.00
2022-11-07T12:07:50.677Z,16.80
2022-11-07T12:13:16.841Z,16.60
2022-11-07T12:19:02.085Z,16.50
2022-11-07T12:24:31.488Z,16.70
2022-11-07T12:29:46.443Z,16.80
2022-11-07T12:35:07.731Z,16.70
2022-11-07T12:40:35.099Z,16.70
2022-11-07T12:46:07.551Z,16.70
2022-11-07T12:51:25.304Z,16.80
2022-11-07T12:56:41.027Z,16.80
2022-11-07T13:01:56.537Z,16.70
2022-11-07T13:07:19.728Z,16.70
2022-11-07T13:12:43.423Z,16.30
2022-11-07T13:17:47.423Z,16.30
2022-11-07T13:23:02.336Z,16.40
2022-11-07T13:28:33.394Z,16.20
2022-11-07T13:33:37.845Z,16.40
2022-11-07T13:38:59.909Z,16.50
2022-11-07T13:44:08.797Z,16.60
2022-11-07T13:49:44.511Z,16.80
2022-11-07T13:55:34.326Z,16.60
2022-11-07T14:00:42.959Z,16.50
2022-11-07T14:05:48.537Z,16.40
2022-11-07T14:11:24.751Z,16.40
2022-11-07T14:16:53.079Z,16.40
2022-11-07T14:22:01.557Z,16.30
2022-11-07T14:27:07.643Z,16.20
2022-11-07T14:32:22.293Z,16.00
2022-11-07T14:37:26.195Z,16.00
2022-11-07T14:42:36.059Z,16.10
2022-11-07T14:47:49.299Z,16.00
2022-11-07T14:53:16.982Z,16.00
2022-11-07T14:58:25.680Z,16.00
2022-11-07T15:03:33.883Z,16.00
2022-11-07T15:08:43.236Z,16.00
2022-11-07T15:13:48.123Z,16.00
2022-11-07T15:19:05.387Z,16.00
2022-11-07T15:24:26.175Z,15.90
2022-11-07T15:29:56.108Z,15.90
2022-11-07T15:35:30.134Z,15.80
2022-11-07T15:40:27.451Z,15.80
2022-11-07T15:45:34.978Z,15.80
2022-11-07T15:50:46.662Z,15.80
2022-11-07T15:56:21.158Z,15.80
2022-11-07T16:01:24.992Z,15.90
2022-11-07T16:06:32.085Z,15.80
2022-11-07T16:11:34.851Z,15.80
2022-11-07T16:16:41.050Z,15.80
2022-11-07T16:21:48.511Z,15.80
2022-11-07T16:26:56.728Z,15.70
2022-11-07T16:32:00.028Z,15.70
2022-11-07T16:37:02.878Z,15.70
2022-11-07T16:42:10.307Z,15.70
2022-11-07T16:47:19.366Z,15.50
2022-11-07T16:52:25.260Z,15.60
2022-11-07T16:57:27.518Z,15.60
2022-11-07T17:02:32.753Z,15.60
2022-11-07T17:07:43.118Z,15.60
2022-11-07T17:12:49.761Z,15.60
2022-11-07T17:17:59.050Z,15.50
2022-11-07T17:23:05.031Z,15.60
2022-11-07T17:28:09.875Z,15.60
2022-11-07T17:33:13.700Z,15.60
2022-11-07T17:38:17.195Z,15.60
2022-11-07T17:43:20.871Z,15.60
2022-11-07T17:48:24.963Z,15.50
2022-11-07T17:53:28.768Z,15.50
2022-11-07T17:58:31.033Z,15.50
2022-11-07T18:03:42.540Z,15.60
2022-11-07T18:08:52.502Z,15.60
2022-11-07T18:14:00.123Z,15.70
2022-11-07T18:19:07.438Z,15.70
2022-11-07T18:24:12.554Z,15.60
2022-11-07T18:29:15.112Z,15.40
2022-11-07T18:34:18.274Z,15.20
2022-11-07T18:39:24.428Z,14.90
2022-11-07T18:44:26.962Z,14.70
2022-11-07T18:49:29.766Z,14.50
2022-11-07T18:54:36.646Z,14.40
2022-11-07T18:59:41.740Z,14.30
2022-11-07T19:04:45.327Z,14.30
2022-11-07T19:09:48.661Z,14.30
2022-11-07T19:14:52.021Z,14.40
2022-11-07T19:19:54.356Z,14.40
2022-11-07T19:24:56.563Z,14.40
2022-11-07T19:30:01.117Z,14.50
2022-11-07T19:35:34.264Z,14.60
2022-11-07T19:40:45.257Z,14.70
2022-11-07T19:45:50.643Z,14.80
2022-11-07T19:50:54.035Z,14.60
2022-11-07T19:55:59.432Z,14.40
2022-11-07T20:01:18.996Z,14.20
2022-11-07T20:06:25.169Z,14.20
2022-11-07T20:11:27.916Z,14.40
2022-11-07T20:21:50.508Z,14.50
2022-11-07T20:26:55.589Z,14.50
2022-11-07T20:32:03.018Z,14.40
2022-11-07T20:37:09.325Z,14.50
2022-11-07T20:42:25.832Z,14.40
2022-11-07T20:47:34.155Z,14.30
2022-11-07T20:52:36.266Z,14.40
2022-11-07T20:57:41.453Z,14.40
2022-11-07T21:08:05.288Z,14.60
2022-11-07T21:13:08.846Z,14.70
2022-11-07T21:18:13.485Z,14.90
2022-11-07T21:23:16.902Z,15.00
2022-11-07T21:28:20.891Z,15.10
2022-11-07T21:33:30.560Z,15.20
2022-11-07T21:38:33.855Z,15.20
2022-11-07T21:43:48.753Z,15.30
2022-11-07T21:48:56.958Z,15.30
2022-11-07T21:54:06.391Z,15.40
2022-11-07T21:59:14.971Z,15.40
2022-11-07T22:04:17.610Z,15.50
2022-11-07T22:09:25.536Z,15.50
2022-11-07T22:14:35.035Z,15.50
2022-11-07T22:19:37.213Z,13.50
2022-11-07T22:24:41.163Z,12.10
2022-11-07T22:29:43.438Z,11.70
2022-11-07T22:34:45.779Z,11.50
2022-11-07T22:39:48.636Z,11.50
2022-11-07T22:44:51.741Z,11.40
2022-11-07T22:49:53.988Z,11.40
2022-11-07T22:54:56.301Z,11.40
2022-11-07T23:00:06.637Z,11.40
2022-11-07T23:05:20.733Z,11.50
2022-11-07T23:10:25.032Z,11.50
2022-11-07T23:15:27.197Z,11.50
2022-11-07T23:20:55.645Z,11.50
2022-11-07T23:26:00.939Z,11.50
2022-11-07T23:31:04.146Z,11.50
2022-11-07T23:36:10.507Z,11.50
2022-11-07T23:41:14.521Z,11.50
2022-11-07T23:46:35.395Z,11.50
2022-11-07T23:51:37.698Z,11.50
2022-11-07T23:56:42.439Z,11.50
